首页
METAR-TAF:

METAR-TAF

机场 :

内塔吉·苏巴斯·钱德拉·鲍斯国际机场

加尔各答, 印度

纬度: 22-39N, 经度: 088-27E, 海拔: 4米

当前天气观测

该预报发布于25分钟前的07:00 UTC
风速4节,风向
温度 28°C
湿度 45%
气压 1016 hPa
能見度: 4000

METAR: VECC 240700Z 09004KT 4000 HZ NSC 28/15 Q1016 NOSIG

时间: 12:55 (07:25 UTC)

预报

该预报发布于2小时和25分钟前的05:00 UTC
预报有效从24日的 06点(UTC)到 25日的 12点(UTC)
风速5节,风向东北
能見度: 3500
成为
从 24日的 13点(UTC)到 24日的 15点(UTC)
风速节,风向
能見度: 2600
成为
从 25日的 00点(UTC)到 25日的 02点(UTC)
能見度: 1000
浅雾
成为
从 25日的 04点(UTC)到 25日的 06点(UTC)
风速5节,风向东北
能見度: 2600
成为
从 25日的 07点(UTC)到 25日的 09点(UTC)
能見度: 3500

TAF: VECC 240500Z 2406/2512 04005KT 3500 HZ NSC BECMG 2413/2415 00000KT 2600 HZ BECMG 2500/2502 1000 MIFG BECMG 2504/2506 05005KT 2600 HZ BECMG 2507/2509 3500 HZ

超过4000个机场的气象观测和天气预报(METAR&TAF报告)。

可查询的气象台以黄色和红色小点在地图上表示。

将鼠标移到小点上方,可查看气象台名称。

然后点击查看天气观测和预报。

如需切换地图:点击带黑十字的绿色按钮放大地图;点击带横线的绿色按钮缩小地图;或者点击绿色箭头查看邻近地区的地图。


METAR-TAF: